Time;durP1;ratioP1;P1;durP2;ratioP2;P2;SDS_P1;SDS_P2;PMS_P1;PMS_P2;Temp;Humidity;BMP_temperature;BMP_pressure;BME280_temperature;BME280_humidity;BME280_pressure;Samples;Min_cycle;Max_cycle;Signal;HPM_P1;HPM_P2
2024/03/28 00:00:58;;;;;;;3.10;2.60;;;5.50;99.90;;;;;;4987331;28;20030;-40
2024/03/28 00:03:26;;;;;;;3.50;3.13;;;5.40;99.90;;;;;;4983818;28;20732;-41
2024/03/28 00:05:55;;;;;;;3.80;2.42;;;5.40;99.90;;;;;;4992226;28;20027;-42
2024/03/28 00:08:21;;;;;;;3.50;2.88;;;5.20;99.90;;;;;;4988434;28;20080;-34
2024/03/28 00:10:51;;;;;;;4.47;2.65;;;5.10;99.90;;;;;;4987042;28;20070;-32
2024/03/28 00:13:18;;;;;;;3.10;2.70;;;4.90;99.90;;;;;;4985829;28;20041;-36
2024/03/28 00:15:44;;;;;;;4.63;3.20;;;4.90;99.90;;;;;;4989089;28;20373;-32
2024/03/28 00:18:09;;;;;;;4.38;2.78;;;5.00;99.90;;;;;;4991224;28;20045;-35
2024/03/28 00:20:36;;;;;;;6.63;4.25;;;5.10;99.90;;;;;;4992408;28;20574;-34
2024/03/28 00:23:02;;;;;;;3.53;3.10;;;5.10;99.90;;;;;;4993507;28;20034;-32
2024/03/28 00:25:30;;;;;;;3.50;3.08;;;5.10;99.90;;;;;;4983908;28;20476;-32
2024/03/28 00:28:01;;;;;;;4.00;3.28;;;5.10;99.90;;;;;;4994640;28;20112;-33
2024/03/28 00:30:27;;;;;;;3.28;2.60;;;5.10;99.90;;;;;;4983810;28;20102;-32
2024/03/28 00:32:53;;;;;;;2.58;2.28;;;5.10;99.90;;;;;;4986914;28;20189;-33
2024/03/28 00:35:18;;;;;;;4.85;2.60;;;5.10;99.90;;;;;;4985936;28;20072;-37
2024/03/28 00:37:44;;;;;;;2.95;2.70;;;5.00;99.90;;;;;;4992802;28;20115;-36
2024/03/28 00:40:12;;;;;;;4.25;3.05;;;5.10;99.90;;;;;;4983699;28;20053;-33
2024/03/28 00:42:38;;;;;;;3.33;2.78;;;5.00;99.90;;;;;;4984486;28;20117;-32
2024/03/28 00:45:04;;;;;;;3.03;2.72;;;5.00;99.90;;;;;;4988435;28;20109;-38
2024/03/28 00:47:30;;;;;;;3.25;2.65;;;4.90;99.90;;;;;;4993891;28;20081;-32
2024/03/28 00:49:55;;;;;;;4.15;2.80;;;4.80;99.90;;;;;;4991321;28;20499;-32
2024/03/28 00:52:23;;;;;;;3.35;3.05;;;4.70;99.90;;;;;;4988491;28;20492;-34
2024/03/28 00:54:48;;;;;;;2.80;2.60;;;4.70;99.90;;;;;;4986712;28;20091;-32
2024/03/28 00:57:14;;;;;;;3.08;2.78;;;4.70;99.90;;;;;;4990801;28;20039;-34
2024/03/28 00:59:40;;;;;;;2.47;2.28;;;4.60;99.90;;;;;;4991605;28;20097;-33
2024/03/28 01:02:05;;;;;;;2.60;2.40;;;4.70;99.90;;;;;;4982304;28;20038;-34
2024/03/28 01:04:31;;;;;;;2.53;2.25;;;4.60;99.90;;;;;;4985758;28;20033;-33
2024/03/28 01:06:56;;;;;;;3.75;3.00;;;4.60;99.90;;;;;;4995205;28;20034;-32
2024/03/28 01:09:22;;;;;;;3.10;2.75;;;4.60;99.90;;;;;;4988811;28;20118;-32
2024/03/28 01:11:48;;;;;;;3.42;2.50;;;4.60;99.90;;;;;;4986907;28;20030;-33
2024/03/28 01:14:14;;;;;;;3.65;2.60;;;4.60;99.90;;;;;;4980233;28;20027;-32
2024/03/28 01:16:39;;;;;;;2.45;2.25;;;4.50;99.90;;;;;;4983068;28;20034;-33
2024/03/28 01:19:05;;;;;;;3.60;2.58;;;4.50;99.90;;;;;;4991911;28;20242;-37
2024/03/28 01:21:30;;;;;;;2.78;2.40;;;4.40;99.90;;;;;;4977630;28;20023;-39
2024/03/28 01:23:56;;;;;;;2.30;2.05;;;4.40;99.90;;;;;;4986314;28;20018;-41
2024/03/28 01:26:21;;;;;;;3.72;2.58;;;4.40;99.90;;;;;;4988147;28;20085;-39
2024/03/28 01:28:47;;;;;;;2.65;2.40;;;4.30;99.90;;;;;;4984455;28;20431;-41
2024/03/28 01:31:12;;;;;;;2.83;2.47;;;4.30;99.90;;;;;;4989748;28;20540;-35
2024/03/28 01:33:38;;;;;;;2.60;2.40;;;4.30;99.90;;;;;;4981081;28;20084;-41
2024/03/28 01:36:04;;;;;;;2.03;1.83;;;4.30;99.90;;;;;;4986410;28;20023;-36
2024/03/28 01:38:30;;;;;;;3.67;2.30;;;4.30;99.90;;;;;;4996812;28;20028;-32
2024/03/28 01:40:55;;;;;;;2.03;1.92;;;4.30;99.90;;;;;;4992938;28;20049;-31
2024/03/28 01:43:21;;;;;;;2.47;1.95;;;4.30;99.90;;;;;;4988276;28;20487;-33
2024/03/28 01:45:47;;;;;;;1.98;1.83;;;4.20;99.90;;;;;;4985168;28;20042;-34
2024/03/28 01:48:14;;;;;;;3.70;2.38;;;4.20;99.90;;;;;;4998170;28;20033;-36
2024/03/28 01:50:40;;;;;;;3.30;2.67;;;4.30;99.90;;;;;;4990699;28;20436;-34
2024/03/28 01:53:06;;;;;;;5.10;2.17;;;4.20;99.90;;;;;;4984584;28;20038;-34
2024/03/28 01:55:32;;;;;;;2.53;2.08;;;4.20;99.90;;;;;;4991975;28;20026;-32
2024/03/28 01:58:00;;;;;;;2.83;1.75;;;4.20;99.90;;;;;;4996357;28;20113;-32
2024/03/28 02:00:27;;;;;;;2.30;2.10;;;4.20;99.90;;;;;;4988530;28;20046;-35
2024/03/28 02:02:55;;;;;;;2.03;1.83;;;4.20;99.90;;;;;;4990062;28;20057;-33
2024/03/28 02:05:22;;;;;;;2.58;2.10;;;4.20;99.90;;;;;;4990372;28;20469;-33
2024/03/28 02:07:47;;;;;;;2.28;2.08;;;4.10;99.90;;;;;;4989204;28;20031;-33
2024/03/28 02:10:13;;;;;;;2.75;2.22;;;4.10;99.90;;;;;;4990985;28;20027;-32
2024/03/28 02:12:39;;;;;;;1.90;1.60;;;4.10;99.90;;;;;;4985799;28;20034;-33
2024/03/28 02:15:05;;;;;;;2.08;1.80;;;4.00;99.90;;;;;;4985236;28;20097;-35
2024/03/28 02:17:30;;;;;;;1.67;1.58;;;4.00;99.90;;;;;;4992417;28;20049;-32
2024/03/28 02:19:56;;;;;;;1.92;1.70;;;3.90;99.90;;;;;;4989730;28;20480;-33
2024/03/28 02:22:22;;;;;;;1.70;1.60;;;3.90;99.90;;;;;;4992832;28;20196;-34
2024/03/28 02:24:49;;;;;;;1.60;1.50;;;3.80;99.90;;;;;;4989994;28;20101;-32
2024/03/28 02:27:14;;;;;;;1.83;1.60;;;3.60;99.90;;;;;;4996751;28;20029;-32
2024/03/28 02:29:40;;;;;;;2.40;1.55;;;3.60;99.90;;;;;;4996201;28;20045;-42
2024/03/28 02:32:06;;;;;;;1.75;1.65;;;3.50;99.90;;;;;;4992238;28;20034;-38
2024/03/28 02:34:31;;;;;;;1.75;1.52;;;3.50;99.90;;;;;;4992461;28;20447;-41
2024/03/28 02:36:57;;;;;;;1.40;1.30;;;3.50;99.90;;;;;;4986534;28;20558;-39
2024/03/28 02:39:22;;;;;;;1.67;1.55;;;3.40;99.90;;;;;;4991404;28;20084;-42
2024/03/28 02:41:48;;;;;;;1.92;1.40;;;3.30;99.90;;;;;;4987000;28;20038;-42
2024/03/28 02:44:13;;;;;;;1.27;1.17;;;3.40;99.90;;;;;;4988516;28;20088;-41
2024/03/28 02:46:39;;;;;;;1.38;1.27;;;3.30;99.90;;;;;;4993655;28;20031;-43
2024/03/28 02:49:05;;;;;;;1.67;1.40;;;3.30;99.90;;;;;;4985582;28;20432;-39
2024/03/28 02:51:30;;;;;;;2.70;1.45;;;3.20;99.90;;;;;;4989484;28;20057;-42
2024/03/28 02:53:56;;;;;;;1.48;1.38;;;3.30;99.90;;;;;;5003394;28;20089;-43
2024/03/28 02:56:21;;;;;;;1.30;1.15;;;3.30;99.90;;;;;;4994316;28;20037;-40
2024/03/28 02:58:47;;;;;;;1.20;1.20;;;3.30;99.90;;;;;;4993026;28;20555;-42
2024/03/28 03:01:12;;;;;;;1.42;1.30;;;3.30;99.90;;;;;;4983812;28;20030;-36
2024/03/28 03:03:38;;;;;;;1.17;1.13;;;3.30;99.90;;;;;;4988636;28;20034;-39
2024/03/28 03:06:03;;;;;;;2.38;1.42;;;3.10;99.90;;;;;;4988513;28;20037;-34
2024/03/28 03:08:29;;;;;;;1.40;1.30;;;3.00;99.90;;;;;;4992229;28;20089;-41
2024/03/28 03:10:55;;;;;;;1.60;1.48;;;3.00;99.90;;;;;;4985285;28;20392;-43
2024/03/28 03:13:20;;;;;;;1.60;1.50;;;3.00;99.90;;;;;;4986586;28;20101;-38
2024/03/28 03:15:55;;;;;;;1.27;1.17;;;3.00;99.90;;;;;;4986597;28;20409;-41
2024/03/28 03:18:26;;;;;;;1.27;1.17;;;3.00;99.90;;;;;;4989504;28;20455;-42
2024/03/28 03:21:07;;;;;;;1.63;1.02;;;3.00;99.90;;;;;;4993644;28;20166;-43
2024/03/28 03:23:38;;;;;;;1.48;1.30;;;3.00;99.90;;;;;;4995906;28;21279;-42
2024/03/28 03:26:19;;;;;;;1.40;1.30;;;2.90;99.90;;;;;;4987749;28;20511;-34
2024/03/28 03:36:57;;;;;;;3.95;0.98;;;2.80;99.90;;;;;;4990520;28;20462;-34
2024/03/28 03:39:23;;;;;;;2.08;1.00;;;2.80;99.90;;;;;;4997633;28;20026;-38
2024/03/28 03:41:49;;;;;;;1.10;1.10;;;2.90;99.90;;;;;;4987336;28;20061;-41
2024/03/28 03:44:14;;;;;;;1.40;1.30;;;2.80;99.90;;;;;;4987552;28;20067;-41
2024/03/28 03:46:41;;;;;;;1.10;1.10;;;2.80;99.90;;;;;;4981638;28;20037;-39
2024/03/28 03:49:06;;;;;;;1.45;1.30;;;2.70;99.90;;;;;;4990565;28;20072;-38
2024/03/28 03:51:33;;;;;;;1.73;1.63;;;2.70;99.90;;;;;;4987051;28;20460;-41
2024/03/28 03:53:58;;;;;;;1.65;1.55;;;2.60;99.90;;;;;;4991121;28;20400;-41
2024/03/28 03:56:24;;;;;;;1.10;1.10;;;2.60;99.90;;;;;;4997581;28;20034;-41
2024/03/28 03:58:49;;;;;;;2.85;2.65;;;2.60;99.90;;;;;;4990093;28;20032;-43
2024/03/28 04:01:17;;;;;;;0.90;0.90;;;2.50;99.90;;;;;;4983650;28;20051;-42
2024/03/28 04:03:43;;;;;;;1.10;1.10;;;2.40;99.90;;;;;;4993268;28;20044;-42
2024/03/28 04:06:10;;;;;;;1.55;1.13;;;2.20;99.90;;;;;;4991869;28;20030;-43
2024/03/28 04:08:36;;;;;;;1.00;1.00;;;2.20;99.90;;;;;;4985650;28;20097;-41
2024/03/28 04:11:02;;;;;;;1.15;1.00;;;2.30;99.90;;;;;;4989256;28;20037;-41
2024/03/28 04:13:28;;;;;;;1.10;1.10;;;2.20;99.90;;;;;;4986991;28;20481;-41
2024/03/28 04:15:53;;;;;;;1.00;1.00;;;2.20;99.90;;;;;;4985512;28;20449;-41
2024/03/28 04:18:19;;;;;;;1.00;0.98;;;2.20;99.90;;;;;;4990293;28;20585;-39
2024/03/28 04:20:45;;;;;;;1.13;1.02;;;2.20;99.90;;;;;;4982753;28;20389;-39
2024/03/28 04:23:10;;;;;;;2.30;1.20;;;2.10;99.90;;;;;;4990342;28;20033;-39
2024/03/28 04:25:36;;;;;;;1.10;1.10;;;2.10;99.90;;;;;;4990432;28;20243;-39
2024/03/28 04:28:02;;;;;;;1.40;1.30;;;1.70;99.90;;;;;;4982427;28;20102;-39
2024/03/28 04:30:35;;;;;;;23.75;2.55;;;1.70;99.90;;;;;;4985594;28;20585;-36
2024/03/28 04:33:02;;;;;;;1.02;1.00;;;1.70;99.90;;;;;;4989964;28;20049;-42
2024/03/28 04:35:27;;;;;;;1.20;1.20;;;1.60;99.90;;;;;;4988611;28;20690;-41
2024/03/28 04:37:53;;;;;;;1.23;1.23;;;1.70;99.90;;;;;;4985265;28;20026;-41
2024/03/28 04:40:19;;;;;;;1.42;1.30;;;1.70;99.90;;;;;;4987826;28;20595;-41
2024/03/28 04:42:51;;;;;;;1.05;1.05;;;1.70;99.90;;;;;;4984908;28;20030;-39
2024/03/28 04:45:20;;;;;;;1.13;1.10;;;1.70;99.90;;;;;;4996383;28;20034;-37
2024/03/28 04:47:49;;;;;;;;;;;1.70;99.90;;;;;;4990569;28;20034;-34
2024/03/28 04:50:18;;;;;;;1.27;1.17;;;1.80;99.90;;;;;;4990900;28;19921;-40
2024/03/28 04:52:44;;;;;;;2.58;1.05;;;1.80;99.90;;;;;;4988959;28;20018;-41
2024/03/28 04:55:10;;;;;;;9.57;3.00;;;1.70;99.90;;;;;;4982353;28;20022;-42
2024/03/28 04:57:36;;;;;;;1.20;1.10;;;1.40;99.90;;;;;;4984454;28;20038;-41
2024/03/28 05:00:06;;;;;;;1.00;1.00;;;1.40;99.90;;;;;;4988534;28;20100;-42
2024/03/28 05:02:32;;;;;;;1.20;1.20;;;1.30;99.90;;;;;;4983964;28;20049;-40
2024/03/28 05:04:58;;;;;;;1.17;1.17;;;1.40;99.90;;;;;;4986388;28;20030;-40
2024/03/28 05:07:23;;;;;;;2.20;1.60;;;1.40;99.90;;;;;;4991705;28;20036;-40
2024/03/28 05:09:50;;;;;;;2.72;1.80;;;1.40;99.90;;;;;;4991712;28;20030;-42
2024/03/28 05:12:15;;;;;;;2.03;1.40;;;1.40;99.90;;;;;;4984200;28;20081;-42
2024/03/28 05:14:41;;;;;;;1.65;1.55;;;1.40;99.90;;;;;;4989016;28;20034;-41
2024/03/28 05:17:07;;;;;;;1.80;1.70;;;1.40;99.90;;;;;;4986409;28;20034;-39
2024/03/28 05:19:33;;;;;;;1.50;1.40;;;1.40;99.90;;;;;;4991777;28;20061;-33
2024/03/28 05:21:59;;;;;;;1.50;1.40;;;1.50;99.90;;;;;;4990168;28;20085;-33
2024/03/28 05:24:25;;;;;;;1.60;1.50;;;1.40;99.90;;;;;;4991218;28;20031;-33
2024/03/28 05:26:50;;;;;;;1.85;1.60;;;1.40;99.90;;;;;;4991414;28;20031;-33
2024/03/28 05:29:16;;;;;;;2.10;1.35;;;1.20;99.90;;;;;;4988500;28;20061;-40
2024/03/28 05:31:42;;;;;;;1.25;1.17;;;1.20;99.90;;;;;;4983220;28;20121;-33
2024/03/28 05:34:08;;;;;;;1.48;1.38;;;1.00;99.90;;;;;;4988563;28;20076;-36
2024/03/28 05:36:36;;;;;;;1.85;1.58;;;1.00;99.90;;;;;;4991000;28;20480;-33
2024/03/28 05:39:04;;;;;;;1.65;1.52;;;1.10;99.90;;;;;;4993901;28;20064;-35
2024/03/28 05:41:30;;;;;;;2.67;1.50;;;1.20;99.90;;;;;;4995350;28;20057;-34
2024/03/28 05:43:55;;;;;;;1.50;1.40;;;1.00;99.90;;;;;;4987950;28;20026;-33
2024/03/28 05:46:21;;;;;;;1.27;1.17;;;1.10;99.90;;;;;;4985712;28;20506;-32
2024/03/28 05:48:47;;;;;;;1.17;1.15;;;1.10;99.90;;;;;;4987720;28;20420;-34
2024/03/28 05:51:12;;;;;;;0.90;0.90;;;1.10;99.90;;;;;;4984954;28;20031;-32
2024/03/28 05:53:38;;;;;;;1.25;1.13;;;1.10;99.90;;;;;;4987629;28;20038;-33
2024/03/28 05:56:03;;;;;;;1.48;1.38;;;1.10;99.90;;;;;;4984872;28;20038;-37
2024/03/28 05:58:29;;;;;;;2.28;1.90;;;1.10;99.90;;;;;;4981186;28;20039;-32
2024/03/28 06:00:55;;;;;;;2.70;1.50;;;1.10;99.90;;;;;;4983471;28;20042;-32
2024/03/28 06:03:21;;;;;;;2.33;2.08;;;1.10;99.90;;;;;;4987491;28;20026;-34
2024/03/28 06:05:46;;;;;;;1.60;1.50;;;1.20;99.90;;;;;;4981846;28;20522;-34
2024/03/28 06:08:12;;;;;;;1.63;1.52;;;1.40;99.90;;;;;;4989637;28;20022;-33
2024/03/28 06:10:37;;;;;;;1.50;1.40;;;1.50;99.90;;;;;;4982219;28;20480;-33
2024/03/28 06:13:03;;;;;;;1.95;1.85;;;1.50;99.90;;;;;;4993008;28;20476;-37
2024/03/28 06:15:29;;;;;;;1.80;1.70;;;1.60;99.90;;;;;;4994156;28;20408;-33
2024/03/28 06:17:54;;;;;;;1.73;1.63;;;1.70;99.90;;;;;;4993326;28;20030;-33
2024/03/28 06:20:20;;;;;;;1.73;1.55;;;1.80;99.90;;;;;;4989576;28;20450;-33
2024/03/28 06:22:46;;;;;;;1.63;1.52;;;1.80;99.90;;;;;;4987342;28;20554;-34
2024/03/28 06:25:11;;;;;;;2.20;2.00;;;1.90;99.90;;;;;;4992055;28;20057;-32
2024/03/28 06:27:37;;;;;;;2.65;1.60;;;1.90;99.90;;;;;;4999159;28;20022;-42
2024/03/28 06:30:03;;;;;;;2.30;1.88;;;2.00;99.90;;;;;;4988416;28;20492;-42
2024/03/28 06:32:31;;;;;;;1.85;1.75;;;2.10;99.90;;;;;;4988705;28;20403;-41
2024/03/28 06:34:58;;;;;;;3.05;2.05;;;2.20;99.90;;;;;;4985819;28;20405;-39
2024/03/28 06:37:24;;;;;;;2.25;2.10;;;2.30;99.90;;;;;;4987228;28;20046;-41
2024/03/28 06:39:50;;;;;;;2.85;2.08;;;2.40;99.90;;;;;;4986180;28;20492;-39
2024/03/28 06:42:16;;;;;;;2.50;2.30;;;2.50;99.90;;;;;;4983167;28;20031;-40
2024/03/28 06:44:49;;;;;;;5.25;3.72;;;2.60;99.90;;;;;;5000264;28;20026;-40
2024/03/28 06:47:16;;;;;;;3.67;2.17;;;2.80;99.90;;;;;;4986330;28;20037;-42
2024/03/28 06:49:41;;;;;;;3.28;2.53;;;2.90;99.90;;;;;;4985413;28;20571;-42
2024/03/28 06:52:07;;;;;;;1.95;1.67;;;3.10;99.90;;;;;;4987072;28;20106;-41
2024/03/28 06:54:33;;;;;;;3.25;2.20;;;3.20;99.90;;;;;;4980469;28;20034;-41
2024/03/28 06:56:59;;;;;;;3.92;2.30;;;3.40;99.90;;;;;;4988582;28;20030;-39
2024/03/28 06:59:25;;;;;;;8.20;2.50;;;3.50;99.90;;;;;;4984836;28;20248;-42
2024/03/28 07:01:51;;;;;;;2.58;2.05;;;3.60;99.90;;;;;;4984221;28;20039;-42
2024/03/28 07:04:16;;;;;;;3.17;2.25;;;3.80;99.90;;;;;;4986296;28;20100;-38
2024/03/28 07:06:42;;;;;;;4.90;1.80;;;3.90;99.90;;;;;;4983165;28;20023;-42
2024/03/28 07:09:08;;;;;;;2.75;2.00;;;4.00;99.90;;;;;;4989930;28;20054;-40
2024/03/28 07:11:34;;;;;;;2.55;2.10;;;4.30;99.90;;;;;;4984576;28;20034;-36
2024/03/28 07:14:02;;;;;;;1.17;1.17;;;4.40;99.90;;;;;;4980946;28;20053;-40
2024/03/28 07:16:28;;;;;;;2.30;1.45;;;4.50;99.90;;;;;;4978263;28;20035;-41
2024/03/28 07:18:55;;;;;;;2.75;1.58;;;4.60;99.90;;;;;;4985673;28;20034;-42
2024/03/28 07:21:21;;;;;;;2.15;1.35;;;4.70;99.90;;;;;;4977981;28;20110;-37
2024/03/28 07:23:47;;;;;;;0.90;0.77;;;4.80;99.90;;;;;;4981453;28;20105;-41
2024/03/28 07:26:13;;;;;;;0.88;0.88;;;5.00;99.90;;;;;;4986333;28;20481;-41
2024/03/28 07:28:39;;;;;;;1.05;0.85;;;5.30;99.90;;;;;;4989128;28;20476;-40
2024/03/28 07:31:04;;;;;;;0.80;0.80;;;5.50;99.90;;;;;;4984564;28;20038;-37
2024/03/28 07:33:30;;;;;;;1.35;1.25;;;5.80;99.90;;;;;;4988248;28;20034;-39
2024/03/28 07:35:56;;;;;;;0.90;0.90;;;6.00;99.90;;;;;;4980540;28;20133;-41
2024/03/28 07:38:21;;;;;;;1.70;1.05;;;6.10;99.90;;;;;;4985392;28;20369;-33
2024/03/28 07:40:48;;;;;;;1.48;0.90;;;6.30;99.90;;;;;;4986308;28;20129;-33
2024/03/28 07:43:13;;;;;;;0.90;0.77;;;6.50;99.90;;;;;;4982441;28;20443;-37
2024/03/28 07:45:39;;;;;;;0.60;0.60;;;6.70;99.90;;;;;;4981385;28;20027;-32
2024/03/28 07:48:06;;;;;;;0.30;0.30;;;6.70;99.90;;;;;;4977562;28;20155;-37
2024/03/28 07:50:32;;;;;;;0.70;0.70;;;6.70;99.90;;;;;;4989009;28;20443;-42
2024/03/28 07:52:57;;;;;;;1.05;0.98;;;6.80;99.90;;;;;;4978377;28;20039;-40
2024/03/28 07:55:23;;;;;;;0.60;0.60;;;7.00;99.90;;;;;;4975130;28;20705;-41
2024/03/28 07:57:50;;;;;;;0.75;0.75;;;7.10;99.90;;;;;;4981799;28;20026;-42
2024/03/28 08:00:16;;;;;;;0.60;0.60;;;7.20;99.90;;;;;;4978031;28;20089;-41
2024/03/28 08:02:44;;;;;;;0.52;0.52;;;7.30;99.90;;;;;;4980911;28;20058;-39
2024/03/28 08:05:11;;;;;;;0.50;0.50;;;7.30;99.90;;;;;;4981594;28;20110;-38
2024/03/28 08:07:36;;;;;;;0.80;0.80;;;7.30;99.90;;;;;;4980889;28;20034;-40
2024/03/28 08:10:02;;;;;;;0.50;0.50;;;7.40;99.90;;;;;;4980455;28;20037;-41
2024/03/28 08:12:28;;;;;;;0.57;0.57;;;7.40;99.90;;;;;;4981030;28;20042;-43
2024/03/28 08:14:54;;;;;;;0.68;0.68;;;7.40;99.90;;;;;;4982751;28;20034;-37
2024/03/28 08:17:19;;;;;;;0.77;0.77;;;7.40;99.90;;;;;;4983664;28;20035;-37
2024/03/28 08:19:45;;;;;;;0.68;0.68;;;7.30;99.90;;;;;;4984219;28;20030;-32
2024/03/28 08:22:11;;;;;;;1.00;0.90;;;7.30;99.90;;;;;;4980545;28;20019;-32
2024/03/28 08:24:37;;;;;;;0.98;0.98;;;7.10;99.90;;;;;;4979822;28;20039;-32
2024/03/28 08:27:04;;;;;;;0.38;0.38;;;7.10;99.90;;;;;;4982617;28;20035;-34
2024/03/28 08:29:29;;;;;;;1.23;1.20;;;7.10;99.90;;;;;;4979848;28;20033;-31
2024/03/28 08:31:56;;;;;;;0.90;0.90;;;7.00;99.90;;;;;;4976399;28;20038;-32
2024/03/28 08:34:21;;;;;;;0.80;0.80;;;7.00;99.90;;;;;;4983031;28;20038;-34
2024/03/28 08:36:47;;;;;;;1.45;1.15;;;7.10;99.90;;;;;;4985756;28;20030;-32
2024/03/28 08:39:13;;;;;;;1.30;1.20;;;7.00;99.90;;;;;;4978425;28;20031;-32
2024/03/28 08:41:40;;;;;;;0.98;0.90;;;7.10;99.90;;;;;;4987817;28;20038;-32
2024/03/28 08:44:08;;;;;;;1.77;0.90;;;7.10;99.90;;;;;;4986480;28;20540;-32
2024/03/28 08:46:34;;;;;;;1.00;0.75;;;7.20;99.90;;;;;;4979270;28;20033;-31
2024/03/28 08:49:00;;;;;;;0.80;0.80;;;7.30;99.90;;;;;;4983696;28;20505;-31
2024/03/28 08:51:26;;;;;;;0.93;0.93;;;7.30;99.90;;;;;;4979279;28;20113;-35
2024/03/28 08:53:52;;;;;;;1.38;0.80;;;7.30;99.90;;;;;;4986355;28;20025;-34
2024/03/28 08:56:20;;;;;;;1.65;1.05;;;7.30;99.90;;;;;;4981494;28;20031;-34
2024/03/28 08:58:45;;;;;;;1.50;1.20;;;7.30;99.90;;;;;;4978164;28;20090;-32
2024/03/28 09:01:13;;;;;;;1.70;1.13;;;7.30;99.90;;;;;;4972537;28;20093;-32
2024/03/28 09:03:39;;;;;;;1.10;1.00;;;7.40;99.90;;;;;;4988425;28;20113;-36
2024/03/28 09:06:09;;;;;;;1.58;1.48;;;7.30;99.90;;;;;;4985814;28;20145;-37
2024/03/28 09:08:35;;;;;;;1.35;1.20;;;7.20;99.90;;;;;;4988790;28;20495;-33
2024/03/28 09:11:03;;;;;;;1.58;1.35;;;7.20;99.90;;;;;;4978116;28;20058;-33
2024/03/28 09:13:29;;;;;;;0.90;0.90;;;7.30;99.90;;;;;;4977425;28;20038;-33
2024/03/28 09:15:55;;;;;;;1.55;1.25;;;7.30;99.90;;;;;;4983342;28;20278;-33
2024/03/28 09:18:21;;;;;;;1.08;1.02;;;7.30;99.90;;;;;;4985462;28;20122;-33
2024/03/28 09:20:46;;;;;;;4.13;1.50;;;7.40;99.90;;;;;;4975265;28;20071;-33
2024/03/28 09:23:12;;;;;;;2.00;1.30;;;7.30;99.90;;;;;;4985330;28;20035;-32
2024/03/28 09:25:37;;;;;;;1.80;1.50;;;7.30;99.90;;;;;;4986371;28;20569;-32
2024/03/28 09:28:05;;;;;;;2.15;1.13;;;7.50;99.90;;;;;;4982458;28;20170;-41
2024/03/28 09:30:30;;;;;;;3.00;1.52;;;7.60;99.90;;;;;;4975894;28;20027;-40
2024/03/28 09:32:56;;;;;;;1.55;1.45;;;7.70;99.90;;;;;;4978958;28;20455;-38
2024/03/28 09:35:21;;;;;;;3.67;2.00;;;7.70;99.90;;;;;;4986856;28;20030;-38
2024/03/28 09:37:47;;;;;;;1.13;1.00;;;7.80;99.90;;;;;;4976144;28;20041;-41
2024/03/28 09:40:13;;;;;;;1.48;1.10;;;7.80;99.90;;;;;;4981375;28;20050;-39
2024/03/28 09:42:43;;;;;;;1.27;1.05;;;7.90;99.90;;;;;;4976210;28;20052;-41
2024/03/28 09:45:12;;;;;;;4.75;2.42;;;7.90;99.90;;;;;;4976437;28;20401;-37
2024/03/28 09:47:38;;;;;;;2.78;1.42;;;7.80;99.90;;;;;;4984413;28;20117;-40
2024/03/28 09:50:11;;;;;;;2.80;1.90;;;7.70;99.90;;;;;;4983157;28;20038;-36
2024/03/28 09:52:38;;;;;;;2.88;2.13;;;7.70;99.90;;;;;;4982448;28;20042;-40
2024/03/28 09:55:07;;;;;;;1.13;1.10;;;7.50;99.90;;;;;;4976615;28;20027;-36
2024/03/28 09:57:33;;;;;;;2.00;1.90;;;7.50;99.90;;;;;;4980589;28;20034;-41
2024/03/28 10:00:00;;;;;;;1.15;1.10;;;7.30;99.90;;;;;;4979807;28;20043;-42
2024/03/28 10:02:57;;;;;;;1.60;1.45;;;7.30;99.90;;;;;;4982907;28;20039;-40
2024/03/28 10:05:24;;;;;;;1.13;1.02;;;7.00;99.90;;;;;;4983758;28;20026;-41
2024/03/28 10:07:50;;;;;;;1.10;1.08;;;6.90;99.90;;;;;;4983555;28;20029;-32
2024/03/28 10:10:17;;;;;;;1.63;1.52;;;7.00;99.90;;;;;;4982411;28;20550;-32
2024/03/28 10:12:54;;;;;;;1.67;1.58;;;6.80;99.90;;;;;;4984727;28;20026;-33
2024/03/28 10:15:20;;;;;;;2.30;2.10;;;6.90;99.90;;;;;;4987267;28;20031;-33
2024/03/28 10:17:46;;;;;;;1.52;1.40;;;6.80;99.90;;;;;;4981296;28;20038;-32
2024/03/28 10:20:13;;;;;;;2.40;2.20;;;6.80;99.90;;;;;;4982542;28;20023;-32
2024/03/28 10:22:43;;;;;;;3.08;2.03;;;6.80;99.90;;;;;;4977126;28;20042;-33
2024/03/28 10:25:17;;;;;;;1.90;1.80;;;6.80;99.90;;;;;;4989536;28;20053;-35
2024/03/28 10:27:43;;;;;;;2.08;1.85;;;6.70;99.90;;;;;;4980172;28;20395;-32
2024/03/28 10:30:21;;;;;;;2.20;2.00;;;6.70;99.90;;;;;;4984186;28;20127;-38
2024/03/28 10:32:57;;;;;;;1.60;1.50;;;6.70;99.90;;;;;;4979060;28;20049;-34
2024/03/28 10:35:23;;;;;;;1.77;1.67;;;6.70;99.90;;;;;;4993773;28;20026;-32
2024/03/28 10:38:02;;;;;;;1.38;1.27;;;6.70;99.90;;;;;;4980999;28;20045;-41
2024/03/28 10:40:28;;;;;;;1.50;1.40;;;6.70;99.90;;;;;;4991171;28;20404;-41
2024/03/28 10:42:59;;;;;;;2.13;1.48;;;6.70;99.90;;;;;;4980733;28;20026;-39
2024/03/28 10:45:27;;;;;;;1.70;1.40;;;6.60;99.90;;;;;;4979111;28;20018;-41
2024/03/28 10:47:54;;;;;;;1.38;1.27;;;6.60;99.90;;;;;;4985837;28;20026;-41
2024/03/28 10:50:22;;;;;;;1.40;0.90;;;6.60;99.90;;;;;;4991807;28;20034;-39
2024/03/28 10:52:51;;;;;;;0.93;0.93;;;6.60;99.90;;;;;;4985761;28;20092;-42
2024/03/28 10:55:27;;;;;;;1.17;1.10;;;6.70;99.90;;;;;;4986736;28;20026;-37
2024/03/28 10:57:55;;;;;;;0.85;0.85;;;6.70;99.90;;;;;;4982819;28;20511;-40
2024/03/28 11:00:22;;;;;;;2.15;1.10;;;6.80;99.90;;;;;;4983684;28;20488;-38
2024/03/28 11:02:49;;;;;;;0.77;0.77;;;6.80;99.90;;;;;;4988791;28;20036;-41
2024/03/28 11:05:18;;;;;;;0.90;0.90;;;6.90;99.90;;;;;;4989475;28;20233;-41
2024/03/28 11:07:44;;;;;;;;;;;6.90;99.90;;;;;;4982728;28;20039;-41
2024/03/28 11:10:10;;;;;;;1.08;0.93;;;6.90;99.90;;;;;;4982939;28;19966;-41
2024/03/28 11:12:37;;;;;;;0.90;0.90;;;6.90;99.90;;;;;;4986288;28;20037;-41
2024/03/28 11:15:09;;;;;;;0.70;0.70;;;6.90;99.90;;;;;;4985549;28;20034;-40
2024/03/28 11:17:41;;;;;;;4.35;0.90;;;7.00;99.90;;;;;;4980347;28;20035;-40
2024/03/28 11:20:10;;;;;;;1.02;0.88;;;7.00;99.90;;;;;;4982331;28;20030;-39
2024/03/28 11:22:36;;;;;;;0.60;0.60;;;7.00;99.90;;;;;;4987786;28;20030;-41
2024/03/28 11:25:02;;;;;;;1.73;0.85;;;7.00;99.90;;;;;;4985536;28;20468;-39
2024/03/28 11:27:28;;;;;;;0.63;0.60;;;7.00;99.90;;;;;;4986753;28;20049;-41
2024/03/28 11:30:13;;;;;;;0.50;0.50;;;7.10;99.90;;;;;;4984952;28;20078;-39
2024/03/28 11:32:39;;;;;;;0.60;0.60;;;7.10;99.90;;;;;;4980230;28;20117;-39
2024/03/28 11:35:09;;;;;;;0.40;0.40;;;7.10;99.90;;;;;;4984830;28;20850;-39
2024/03/28 11:37:35;;;;;;;0.75;0.60;;;7.10;99.90;;;;;;4977591;28;20441;-41
2024/03/28 11:40:00;;;;;;;0.60;0.60;;;7.10;99.90;;;;;;4984879;28;20129;-42
2024/03/28 11:42:26;;;;;;;0.43;0.43;;;7.20;99.90;;;;;;4985794;28;20392;-42
2024/03/28 11:45:03;;;;;;;0.40;0.40;;;7.20;99.90;;;;;;4981167;28;20057;-40
2024/03/28 11:47:28;;;;;;;0.40;0.40;;;7.30;99.90;;;;;;4983378;28;20034;-40
2024/03/28 11:50:06;;;;;;;0.60;0.55;;;7.30;99.90;;;;;;4976996;28;20489;-42
2024/03/28 11:52:32;;;;;;;0.70;0.50;;;7.30;99.90;;;;;;4989765;28;20407;-41
2024/03/28 11:54:58;;;;;;;0.35;0.35;;;7.40;99.90;;;;;;4988402;28;20034;-43
2024/03/28 11:57:23;;;;;;;0.90;0.47;;;7.40;99.90;;;;;;4984816;28;20031;-36
2024/03/28 11:59:49;;;;;;;1.20;0.60;;;7.40;99.90;;;;;;4979495;28;20026;-42
2024/03/28 12:02:14;;;;;;;0.50;0.50;;;7.40;99.90;;;;;;4985332;28;20105;-43
2024/03/28 12:04:40;;;;;;;0.52;0.50;;;7.50;99.90;;;;;;4976135;28;20491;-40
2024/03/28 12:07:06;;;;;;;1.13;0.50;;;7.50;99.90;;;;;;4982547;28;20034;-39
2024/03/28 12:09:33;;;;;;;0.45;0.45;;;7.50;99.90;;;;;;4980939;28;20122;-42
2024/03/28 12:12:06;;;;;;;0.50;0.50;;;7.60;99.90;;;;;;4986450;28;20042;-39
2024/03/28 12:14:32;;;;;;;1.23;0.60;;;7.60;99.90;;;;;;4981757;28;20518;-40
2024/03/28 12:16:58;;;;;;;0.60;0.60;;;7.50;99.90;;;;;;4985751;28;20648;-42
2024/03/28 12:19:27;;;;;;;0.50;0.50;;;7.50;99.90;;;;;;4981555;28;20061;-38
2024/03/28 12:21:53;;;;;;;0.45;0.45;;;7.40;99.90;;;;;;4975712;28;20114;-42
2024/03/28 12:24:18;;;;;;;0.40;0.40;;;7.30;99.90;;;;;;4978202;28;20106;-42
2024/03/28 12:26:45;;;;;;;0.52;0.52;;;7.30;99.90;;;;;;4984725;28;20026;-39
2024/03/28 12:29:12;;;;;;;0.60;0.57;;;7.30;99.90;;;;;;4986106;28;20039;-43
2024/03/28 12:31:38;;;;;;;0.75;0.75;;;7.40;99.90;;;;;;4979249;28;20033;-43
2024/03/28 12:34:12;;;;;;;0.80;0.70;;;7.40;99.90;;;;;;4982495;28;20358;-37
2024/03/28 12:36:39;;;;;;;0.80;0.80;;;7.40;99.90;;;;;;4983989;28;20085;-41
2024/03/28 12:39:05;;;;;;;0.68;0.68;;;7.40;99.90;;;;;;4984642;28;20142;-38
2024/03/28 12:41:31;;;;;;;0.65;0.65;;;7.40;99.90;;;;;;4978873;28;20038;-40
2024/03/28 12:44:00;;;;;;;0.60;0.60;;;7.40;99.90;;;;;;4979328;28;20045;-40
2024/03/28 12:46:26;;;;;;;0.60;0.60;;;7.40;99.90;;;;;;4981978;28;20196;-41
2024/03/28 12:48:52;;;;;;;0.60;0.60;;;7.30;99.90;;;;;;4980926;28;20523;-43
2024/03/28 12:51:18;;;;;;;0.70;0.70;;;7.30;99.90;;;;;;4976789;28;20026;-37
2024/03/28 12:53:44;;;;;;;0.57;0.57;;;7.30;99.90;;;;;;4977908;28;20038;-42
2024/03/28 12:56:10;;;;;;;0.50;0.50;;;7.30;99.90;;;;;;4982054;28;20123;-42
2024/03/28 12:58:35;;;;;;;0.70;0.70;;;7.30;99.90;;;;;;4983392;28;20035;-32
2024/03/28 13:01:01;;;;;;;0.70;0.60;;;7.30;99.90;;;;;;4974000;28;20034;-32
2024/03/28 13:03:28;;;;;;;0.60;0.60;;;7.30;99.90;;;;;;4985223;28;20030;-32